sensor_id;sensor_type;location;lat;lon;timestamp;pressure;altitude;pressure_sealevel;temperature
20867;BMP280;10593;48.398;10.698;2022-10-16T00:01:27;96167.13;;;21.80
20867;BMP280;10593;48.398;10.698;2022-10-16T00:03:54;96175.09;;;21.79
20867;BMP280;10593;48.398;10.698;2022-10-16T00:06:22;96181.28;;;21.78
20867;BMP280;10593;48.398;10.698;2022-10-16T00:08:48;96166.59;;;21.75
20867;BMP280;10593;48.398;10.698;2022-10-16T00:11:28;96168.38;;;21.75
20867;BMP280;10593;48.398;10.698;2022-10-16T00:14:00;96164.19;;;21.72
20867;BMP280;10593;48.398;10.698;2022-10-16T00:16:28;96166.88;;;21.71
20867;BMP280;10593;48.398;10.698;2022-10-16T00:18:54;96178.28;;;21.70
20867;BMP280;10593;48.398;10.698;2022-10-16T00:21:26;96187.81;;;21.71
20867;BMP280;10593;48.398;10.698;2022-10-16T00:23:56;96181.84;;;21.69
20867;BMP280;10593;48.398;10.698;2022-10-16T00:26:22;96186.34;;;21.67
20867;BMP280;10593;48.398;10.698;2022-10-16T00:28:50;96189.69;;;21.69
20867;BMP280;10593;48.398;10.698;2022-10-16T00:31:19;96187.16;;;21.67
20867;BMP280;10593;48.398;10.698;2022-10-16T00:33:45;96184.66;;;21.66
20867;BMP280;10593;48.398;10.698;2022-10-16T00:36:16;96190.81;;;21.65
20867;BMP280;10593;48.398;10.698;2022-10-16T00:38:42;96190.81;;;21.65
20867;BMP280;10593;48.398;10.698;2022-10-16T00:41:14;96193.44;;;21.65
20867;BMP280;10593;48.398;10.698;2022-10-16T00:43:50;96196.06;;;21.65
20867;BMP280;10593;48.398;10.698;2022-10-16T00:49:08;96192.75;;;21.61
20867;BMP280;10593;48.398;10.698;2022-10-16T00:51:45;96207.59;;;21.61
20867;BMP280;10593;48.398;10.698;2022-10-16T00:54:26;96203.41;;;21.58
20867;BMP280;10593;48.398;10.698;2022-10-16T00:56:54;96206.09;;;21.57
20867;BMP280;10593;48.398;10.698;2022-10-16T00:59:31;96193.03;;;21.57
20867;BMP280;10593;48.398;10.698;2022-10-16T01:01:58;96191.44;;;21.54
20867;BMP280;10593;48.398;10.698;2022-10-16T01:04:25;96194.97;;;21.53
20867;BMP280;10593;48.398;10.698;2022-10-16T01:07:23;96189.19;;;21.48
20867;BMP280;10593;48.398;10.698;2022-10-16T01:10:36;96188.53;;;21.45
20867;BMP280;10593;48.398;10.698;2022-10-16T01:13:21;96193.84;;;21.43
20867;BMP280;10593;48.398;10.698;2022-10-16T01:16:05;96183.59;;;21.40
20867;BMP280;10593;48.398;10.698;2022-10-16T01:18:50;96170.63;;;21.39
20867;BMP280;10593;48.398;10.698;2022-10-16T01:21:29;96171.56;;;21.38
20867;BMP280;10593;48.398;10.698;2022-10-16T01:27:14;96178.94;;;21.32
20867;BMP280;10593;48.398;10.698;2022-10-16T01:30:02;96192.09;;;21.30
20867;BMP280;10593;48.398;10.698;2022-10-16T01:37:58;96187.78;;;21.29
20867;BMP280;10593;48.398;10.698;2022-10-16T01:40:27;96176.41;;;21.30
20867;BMP280;10593;48.398;10.698;2022-10-16T01:43:11;96176.41;;;21.30
20867;BMP280;10593;48.398;10.698;2022-10-16T01:45:39;96174.72;;;21.29
20867;BMP280;10593;48.398;10.698;2022-10-16T01:48:07;96175.53;;;21.29
20867;BMP280;10593;48.398;10.698;2022-10-16T01:50:40;96179.00;;;21.30
20867;BMP280;10593;48.398;10.698;2022-10-16T01:53:12;96183.38;;;21.29
20867;BMP280;10593;48.398;10.698;2022-10-16T01:55:43;96189.56;;;21.28
20867;BMP280;10593;48.398;10.698;2022-10-16T01:58:13;96187.88;;;21.27
20867;BMP280;10593;48.398;10.698;2022-10-16T02:00:43;96190.59;;;21.26
20867;BMP280;10593;48.398;10.698;2022-10-16T02:03:14;96194.16;;;21.25
20867;BMP280;10593;48.398;10.698;2022-10-16T02:05:50;96193.28;;;21.25
20867;BMP280;10593;48.398;10.698;2022-10-16T02:08:17;96183.84;;;21.22
20867;BMP280;10593;48.398;10.698;2022-10-16T02:10:43;96195.25;;;21.21
20867;BMP280;10593;48.398;10.698;2022-10-16T02:13:32;96185.72;;;21.20
20867;BMP280;10593;48.398;10.698;2022-10-16T02:16:00;96190.22;;;21.18
20867;BMP280;10593;48.398;10.698;2022-10-16T02:18:26;96171.09;;;21.18
20867;BMP280;10593;48.398;10.698;2022-10-16T02:21:16;96172.09;;;21.15
20867;BMP280;10593;48.398;10.698;2022-10-16T02:27:24;96182.75;;;21.12
20867;BMP280;10593;48.398;10.698;2022-10-16T02:30:03;96186.38;;;21.10
20867;BMP280;10593;48.398;10.698;2022-10-16T02:32:35;96188.25;;;21.08
20867;BMP280;10593;48.398;10.698;2022-10-16T02:35:03;96196.91;;;21.08
20867;BMP280;10593;48.398;10.698;2022-10-16T02:37:30;96192.63;;;21.07
20867;BMP280;10593;48.398;10.698;2022-10-16T02:39:58;96197.09;;;21.05
20867;BMP280;10593;48.398;10.698;2022-10-16T02:42:32;96200.56;;;21.06
20867;BMP280;10593;48.398;10.698;2022-10-16T02:44:58;96204.94;;;21.05
20867;BMP280;10593;48.398;10.698;2022-10-16T02:47:24;96204.13;;;21.05
20867;BMP280;10593;48.398;10.698;2022-10-16T02:49:50;96205.88;;;21.04
20867;BMP280;10593;48.398;10.698;2022-10-16T02:52:15;96205.88;;;21.04
20867;BMP280;10593;48.398;10.698;2022-10-16T02:54:41;96198.97;;;21.03
20867;BMP280;10593;48.398;10.698;2022-10-16T02:57:07;96204.19;;;21.03
20867;BMP280;10593;48.398;10.698;2022-10-16T02:59:33;96204.19;;;21.03
20867;BMP280;10593;48.398;10.698;2022-10-16T03:01:58;96210.34;;;21.02
20867;BMP280;10593;48.398;10.698;2022-10-16T03:04:24;96207.75;;;21.02
20867;BMP280;10593;48.398;10.698;2022-10-16T03:06:49;96210.34;;;21.02
20867;BMP280;10593;48.398;10.698;2022-10-16T03:09:15;96208.66;;;21.01
20867;BMP280;10593;48.398;10.698;2022-10-16T03:11:41;96206.06;;;21.01
20867;BMP280;10593;48.398;10.698;2022-10-16T03:14:06;96213.91;;;21.01
20867;BMP280;10593;48.398;10.698;2022-10-16T03:16:32;96215.66;;;21.01
20867;BMP280;10593;48.398;10.698;2022-10-16T03:18:58;96212.22;;;21.00
20867;BMP280;10593;48.398;10.698;2022-10-16T03:21:24;96210.53;;;20.99
20867;BMP280;10593;48.398;10.698;2022-10-16T03:23:50;96222.75;;;20.99
20867;BMP280;10593;48.398;10.698;2022-10-16T03:26:15;96220.25;;;20.97
20867;BMP280;10593;48.398;10.698;2022-10-16T03:28:41;96217.63;;;20.97
20867;BMP280;10593;48.398;10.698;2022-10-16T03:31:07;96210.69;;;20.96
20867;BMP280;10593;48.398;10.698;2022-10-16T03:33:33;96212.47;;;20.96
20867;BMP280;10593;48.398;10.698;2022-10-16T03:35:59;96202.97;;;20.95
20867;BMP280;10593;48.398;10.698;2022-10-16T03:38:25;96196.06;;;20.94
20867;BMP280;10593;48.398;10.698;2022-10-16T03:40:51;96191.84;;;20.91
20867;BMP280;10593;48.398;10.698;2022-10-16T03:43:17;96199.69;;;20.91
20867;BMP280;10593;48.398;10.698;2022-10-16T03:45:42;96203.22;;;20.90
20867;BMP280;10593;48.398;10.698;2022-10-16T03:48:10;96211.94;;;20.91
20867;BMP280;10593;48.398;10.698;2022-10-16T03:50:36;96203.22;;;20.90
20867;BMP280;10593;48.398;10.698;2022-10-16T03:53:02;96212.00;;;20.89
20867;BMP280;10593;48.398;10.698;2022-10-16T03:55:28;96206.78;;;20.89
20867;BMP280;10593;48.398;10.698;2022-10-16T03:57:54;96208.47;;;20.90
20867;BMP280;10593;48.398;10.698;2022-10-16T04:00:19;96212.00;;;20.89
20867;BMP280;10593;48.398;10.698;2022-10-16T04:02:45;96224.13;;;20.90
20867;BMP280;10593;48.398;10.698;2022-10-16T04:05:11;96222.44;;;20.89
20867;BMP280;10593;48.398;10.698;2022-10-16T04:07:36;96215.44;;;20.90
20867;BMP280;10593;48.398;10.698;2022-10-16T04:10:04;96216.28;;;20.90
20867;BMP280;10593;48.398;10.698;2022-10-16T04:12:31;96213.69;;;20.90
20867;BMP280;10593;48.398;10.698;2022-10-16T04:14:56;96212.94;;;20.88
20867;BMP280;10593;48.398;10.698;2022-10-16T04:17:22;96207.72;;;20.88
20867;BMP280;10593;48.398;10.698;2022-10-16T04:19:48;96208.63;;;20.87
20867;BMP280;10593;48.398;10.698;2022-10-16T04:22:13;96208.72;;;20.86
20867;BMP280;10593;48.398;10.698;2022-10-16T04:24:39;96213.16;;;20.84
20867;BMP280;10593;48.398;10.698;2022-10-16T04:27:05;96208.88;;;20.83
20867;BMP280;10593;48.398;10.698;2022-10-16T04:29:31;96213.25;;;20.82
20867;BMP280;10593;48.398;10.698;2022-10-16T04:31:56;96209.81;;;20.82
20867;BMP280;10593;48.398;10.698;2022-10-16T04:34:22;96217.53;;;20.83
20867;BMP280;10593;48.398;10.698;2022-10-16T04:36:48;96215.84;;;20.82
20867;BMP280;10593;48.398;10.698;2022-10-16T04:39:15;96218.47;;;20.82
20867;BMP280;10593;48.398;10.698;2022-10-16T04:41:41;96222.00;;;20.81
20867;BMP280;10593;48.398;10.698;2022-10-16T04:44:07;96219.41;;;20.81
20867;BMP280;10593;48.398;10.698;2022-10-16T04:46:32;96226.31;;;20.82
20867;BMP280;10593;48.398;10.698;2022-10-16T04:48:58;96217.66;;;20.82
20867;BMP280;10593;48.398;10.698;2022-10-16T04:51:24;96222.94;;;20.80
20867;BMP280;10593;48.398;10.698;2022-10-16T04:53:51;96222.94;;;20.80
20867;BMP280;10593;48.398;10.698;2022-10-16T04:56:17;96216.03;;;20.79
20867;BMP280;10593;48.398;10.698;2022-10-16T04:58:44;96223.88;;;20.79
20867;BMP280;10593;48.398;10.698;2022-10-16T05:01:09;96230.88;;;20.79
20867;BMP280;10593;48.398;10.698;2022-10-16T05:03:35;96223.13;;;20.77
20867;BMP280;10593;48.398;10.698;2022-10-16T05:06:01;96229.28;;;20.76
20867;BMP280;10593;48.398;10.698;2022-10-16T05:08:26;96228.44;;;20.76
20867;BMP280;10593;48.398;10.698;2022-10-16T05:10:52;96237.19;;;20.75
20867;BMP280;10593;48.398;10.698;2022-10-16T05:13:17;96232.06;;;20.73
20867;BMP280;10593;48.398;10.698;2022-10-16T05:15:47;96234.69;;;20.73
20867;BMP280;10593;48.398;10.698;2022-10-16T05:18:13;96227.03;;;20.70
20867;BMP280;10593;48.398;10.698;2022-10-16T05:20:39;96230.47;;;20.71
20867;BMP280;10593;48.398;10.698;2022-10-16T05:23:05;96227.94;;;20.69
20867;BMP280;10593;48.398;10.698;2022-10-16T05:25:30;96228.88;;;20.68
20867;BMP280;10593;48.398;10.698;2022-10-16T05:27:56;96232.41;;;20.67
20867;BMP280;10593;48.398;10.698;2022-10-16T05:30:22;96235.94;;;20.66
20867;BMP280;10593;48.398;10.698;2022-10-16T05:32:49;96240.34;;;20.66
20867;BMP280;10593;48.398;10.698;2022-10-16T05:35:17;96252.56;;;20.65
20867;BMP280;10593;48.398;10.698;2022-10-16T05:37:43;96248.25;;;20.64
20867;BMP280;10593;48.398;10.698;2022-10-16T05:40:10;96257.88;;;20.64
20867;BMP280;10593;48.398;10.698;2022-10-16T05:42:35;96257.03;;;20.63
20867;BMP280;10593;48.398;10.698;2022-10-16T05:45:04;96267.56;;;20.62
20867;BMP280;10593;48.398;10.698;2022-10-16T05:47:30;96262.31;;;20.62
20867;BMP280;10593;48.398;10.698;2022-10-16T05:49:56;96264.13;;;20.61
20867;BMP280;10593;48.398;10.698;2022-10-16T05:52:21;96265.97;;;20.59
20867;BMP280;10593;48.398;10.698;2022-10-16T05:54:47;96261.56;;;20.60
20867;BMP280;10593;48.398;10.698;2022-10-16T05:57:13;96263.38;;;20.59
20867;BMP280;10593;48.398;10.698;2022-10-16T05:59:38;96261.69;;;20.58
20867;BMP280;10593;48.398;10.698;2022-10-16T06:02:04;96267.84;;;20.57
20867;BMP280;10593;48.398;10.698;2022-10-16T06:04:29;96266.13;;;20.56
20867;BMP280;10593;48.398;10.698;2022-10-16T06:06:58;96260.91;;;20.56
20867;BMP280;10593;48.398;10.698;2022-10-16T06:09:26;96261.75;;;20.57
20867;BMP280;10593;48.398;10.698;2022-10-16T06:11:51;96268.16;;;20.67
20867;BMP280;10593;48.398;10.698;2022-10-16T06:14:17;96273.50;;;20.79
20867;BMP280;10593;48.398;10.698;2022-10-16T06:16:43;96273.41;;;20.96
20867;BMP280;10593;48.398;10.698;2022-10-16T06:19:08;96284.31;;;21.18
20867;BMP280;10593;48.398;10.698;2022-10-16T06:21:34;96284.34;;;21.46
20867;BMP280;10593;48.398;10.698;2022-10-16T06:24:01;96282.53;;;21.76
20867;BMP280;10593;48.398;10.698;2022-10-16T06:26:29;96287.41;;;22.10
20867;BMP280;10593;48.398;10.698;2022-10-16T06:28:57;96288.78;;;22.43
20867;BMP280;10593;48.398;10.698;2022-10-16T06:31:24;96282.88;;;22.80
20867;BMP280;10593;48.398;10.698;2022-10-16T06:33:53;96280.38;;;23.18
20867;BMP280;10593;48.398;10.698;2022-10-16T06:36:20;96288.41;;;23.54
20867;BMP280;10593;48.398;10.698;2022-10-16T06:38:46;96288.44;;;23.91
20867;BMP280;10593;48.398;10.698;2022-10-16T06:41:19;96283.84;;;24.30
20867;BMP280;10593;48.398;10.698;2022-10-16T06:43:46;96290.00;;;24.67
20867;BMP280;10593;48.398;10.698;2022-10-16T06:46:16;96287.03;;;24.95
20867;BMP280;10593;48.398;10.698;2022-10-16T06:48:42;96295.78;;;25.06
20867;BMP280;10593;48.398;10.698;2022-10-16T06:51:20;96295.91;;;25.05
20867;BMP280;10593;48.398;10.698;2022-10-16T06:53:50;96301.47;;;25.00
20867;BMP280;10593;48.398;10.698;2022-10-16T06:58:44;96312.78;;;25.26
20867;BMP280;10593;48.398;10.698;2022-10-16T07:01:12;96311.75;;;25.50
20867;BMP280;10593;48.398;10.698;2022-10-16T07:03:40;96319.25;;;25.78
20867;BMP280;10593;48.398;10.698;2022-10-16T07:06:09;96320.31;;;26.10
20867;BMP280;10593;48.398;10.698;2022-10-16T07:08:39;96331.69;;;26.32
20867;BMP280;10593;48.398;10.698;2022-10-16T07:11:09;96335.38;;;26.41
20867;BMP280;10593;48.398;10.698;2022-10-16T07:13:40;96333.81;;;26.38
20867;BMP280;10593;48.398;10.698;2022-10-16T07:16:11;96331.94;;;26.29
20867;BMP280;10593;48.398;10.698;2022-10-16T07:18:37;96327.00;;;26.14
20867;BMP280;10593;48.398;10.698;2022-10-16T07:21:12;96338.00;;;25.97
20867;BMP280;10593;48.398;10.698;2022-10-16T07:23:39;96334.09;;;25.79
20867;BMP280;10593;48.398;10.698;2022-10-16T07:26:06;96343.63;;;25.58
20867;BMP280;10593;48.398;10.698;2022-10-16T07:28:32;96343.31;;;25.39
20867;BMP280;10593;48.398;10.698;2022-10-16T07:31:07;96342.16;;;25.20
20867;BMP280;10593;48.398;10.698;2022-10-16T07:33:34;96343.56;;;25.00
20867;BMP280;10593;48.398;10.698;2022-10-16T07:36:00;96350.06;;;24.84
20867;BMP280;10593;48.398;10.698;2022-10-16T07:38:26;96348.53;;;24.69
20867;BMP280;10593;48.398;10.698;2022-10-16T07:41:00;96354.91;;;24.54
20867;BMP280;10593;48.398;10.698;2022-10-16T07:43:28;96359.41;;;24.39
20867;BMP280;10593;48.398;10.698;2022-10-16T07:45:54;96367.09;;;24.30
20867;BMP280;10593;48.398;10.698;2022-10-16T07:48:22;96367.06;;;24.17
20867;BMP280;10593;48.398;10.698;2022-10-16T07:50:48;96369.41;;;24.09
20867;BMP280;10593;48.398;10.698;2022-10-16T07:53:14;96372.75;;;23.99
20867;BMP280;10593;48.398;10.698;2022-10-16T07:55:40;96368.88;;;23.92
20867;BMP280;10593;48.398;10.698;2022-10-16T07:58:06;96372.03;;;23.84
20867;BMP280;10593;48.398;10.698;2022-10-16T08:00:32;96372.28;;;23.80
20867;BMP280;10593;48.398;10.698;2022-10-16T08:02:58;96373.53;;;23.74
20867;BMP280;10593;48.398;10.698;2022-10-16T08:05:29;96372.28;;;23.67
20867;BMP280;10593;48.398;10.698;2022-10-16T08:07:56;96369.97;;;23.63
20867;BMP280;10593;48.398;10.698;2022-10-16T08:10:25;96372.91;;;23.58
20867;BMP280;10593;48.398;10.698;2022-10-16T08:12:52;96372.38;;;23.54
20867;BMP280;10593;48.398;10.698;2022-10-16T08:15:19;96376.84;;;23.52
20867;BMP280;10593;48.398;10.698;2022-10-16T08:17:55;96369.19;;;23.49
20867;BMP280;10593;48.398;10.698;2022-10-16T08:20:21;96369.31;;;23.47
20867;BMP280;10593;48.398;10.698;2022-10-16T08:22:47;96379.03;;;23.45
20867;BMP280;10593;48.398;10.698;2022-10-16T08:25:12;96377.38;;;23.44
20867;BMP280;10593;48.398;10.698;2022-10-16T08:27:38;96385.34;;;23.43
20867;BMP280;10593;48.398;10.698;2022-10-16T08:30:04;96397.63;;;23.42
20867;BMP280;10593;48.398;10.698;2022-10-16T08:32:30;96396.66;;;23.43
20867;BMP280;10593;48.398;10.698;2022-10-16T08:34:55;96392.28;;;23.44
20867;BMP280;10593;48.398;10.698;2022-10-16T08:37:21;96399.22;;;23.45
20867;BMP280;10593;48.398;10.698;2022-10-16T08:39:47;96406.13;;;23.46
20867;BMP280;10593;48.398;10.698;2022-10-16T08:48:22;96414.94;;;23.45
20867;BMP280;10593;48.398;10.698;2022-10-16T08:50:52;96419.25;;;23.46
20867;BMP280;10593;48.398;10.698;2022-10-16T08:53:26;96416.53;;;23.47
20867;BMP280;10593;48.398;10.698;2022-10-16T08:55:53;96424.28;;;23.49
20867;BMP280;10593;48.398;10.698;2022-10-16T08:58:22;96425.97;;;23.50
20867;BMP280;10593;48.398;10.698;2022-10-16T09:00:55;96429.44;;;23.50
20867;BMP280;10593;48.398;10.698;2022-10-16T09:06:31;96431.22;;;23.50
20867;BMP280;10593;48.398;10.698;2022-10-16T09:12:28;96427.66;;;23.51
20867;BMP280;10593;48.398;10.698;2022-10-16T09:15:21;96436.28;;;23.53
20867;BMP280;10593;48.398;10.698;2022-10-16T09:20:51;96436.91;;;23.56
20867;BMP280;10593;48.398;10.698;2022-10-16T09:23:30;96443.84;;;23.57
20867;BMP280;10593;48.398;10.698;2022-10-16T09:25:58;96446.38;;;23.58
20867;BMP280;10593;48.398;10.698;2022-10-16T09:28:24;96449.72;;;23.60
20867;BMP280;10593;48.398;10.698;2022-10-16T09:30:50;96443.44;;;23.63
20867;BMP280;10593;48.398;10.698;2022-10-16T09:33:21;96445.00;;;23.65
20867;BMP280;10593;48.398;10.698;2022-10-16T09:35:56;96444.09;;;23.66
20867;BMP280;10593;48.398;10.698;2022-10-16T09:38:32;96441.34;;;23.68
20867;BMP280;10593;48.398;10.698;2022-10-16T09:41:20;96441.25;;;23.69
20867;BMP280;10593;48.398;10.698;2022-10-16T09:43:56;96448.06;;;23.72
20867;BMP280;10593;48.398;10.698;2022-10-16T09:46:36;96450.69;;;23.72
20867;BMP280;10593;48.398;10.698;2022-10-16T09:49:24;96447.97;;;23.73
20867;BMP280;10593;48.398;10.698;2022-10-16T09:52:02;96454.91;;;23.74
20867;BMP280;10593;48.398;10.698;2022-10-16T09:54:29;96455.66;;;23.76
20867;BMP280;10593;48.398;10.698;2022-10-16T09:57:06;96453.75;;;23.78
20867;BMP280;10593;48.398;10.698;2022-10-16T09:59:32;96452.72;;;23.81
20867;BMP280;10593;48.398;10.698;2022-10-16T10:02:04;96448.25;;;23.83
20867;BMP280;10593;48.398;10.698;2022-10-16T10:05:00;96456.75;;;23.86
20867;BMP280;10593;48.398;10.698;2022-10-16T10:07:32;96460.13;;;23.88
20867;BMP280;10593;48.398;10.698;2022-10-16T10:10:02;96463.47;;;23.90
20867;BMP280;10593;48.398;10.698;2022-10-16T10:12:30;96464.13;;;23.94
20867;BMP280;10593;48.398;10.698;2022-10-16T10:15:06;96464.03;;;23.95
20867;BMP280;10593;48.398;10.698;2022-10-16T10:17:32;96470.84;;;23.98
20867;BMP280;10593;48.398;10.698;2022-10-16T10:22:55;96467.91;;;24.02
20867;BMP280;10593;48.398;10.698;2022-10-16T10:25:55;96475.78;;;24.02
20867;BMP280;10593;48.398;10.698;2022-10-16T10:31:27;96486.94;;;24.06
20867;BMP280;10593;48.398;10.698;2022-10-16T10:34:04;96481.59;;;24.07
20867;BMP280;10593;48.398;10.698;2022-10-16T10:36:41;96488.31;;;24.11
20867;BMP280;10593;48.398;10.698;2022-10-16T10:39:22;96491.69;;;24.13
20867;BMP280;10593;48.398;10.698;2022-10-16T10:42:00;96484.53;;;24.15
20867;BMP280;10593;48.398;10.698;2022-10-16T10:46:09;96485.41;;;24.16
20867;BMP280;10593;48.398;10.698;2022-10-16T10:54:32;96459.66;;;24.21
20867;BMP280;10593;48.398;10.698;2022-10-16T11:00:31;96472.38;;;24.27
20867;BMP280;10593;48.398;10.698;2022-10-16T11:03:46;96467.75;;;24.30
20867;BMP280;10593;48.398;10.698;2022-10-16T11:06:22;96469.25;;;24.34
20867;BMP280;10593;48.398;10.698;2022-10-16T11:09:19;96463.84;;;24.36
20867;BMP280;10593;48.398;10.698;2022-10-16T11:12:17;96463.47;;;24.42
20867;BMP280;10593;48.398;10.698;2022-10-16T11:15:17;96460.59;;;24.45
20867;BMP280;10593;48.398;10.698;2022-10-16T11:18:06;96454.19;;;24.49
20867;BMP280;10593;48.398;10.698;2022-10-16T11:20:50;96455.69;;;24.53
20867;BMP280;10593;48.398;10.698;2022-10-16T11:23:41;96454.53;;;24.57
20867;BMP280;10593;48.398;10.698;2022-10-16T11:26:19;96456.94;;;24.60
20867;BMP280;10593;48.398;10.698;2022-10-16T11:28:54;96461.03;;;24.64
20867;BMP280;10593;48.398;10.698;2022-10-16T11:31:47;96460.00;;;24.66
20867;BMP280;10593;48.398;10.698;2022-10-16T11:34:38;96456.31;;;24.69
20867;BMP280;10593;48.398;10.698;2022-10-16T11:37:32;96457.88;;;24.71
20867;BMP280;10593;48.398;10.698;2022-10-16T11:40:16;96455.16;;;24.73
20867;BMP280;10593;48.398;10.698;2022-10-16T11:42:51;96444.31;;;24.77
20867;BMP280;10593;48.398;10.698;2022-10-16T11:45:59;96443.38;;;24.78
20867;BMP280;10593;48.398;10.698;2022-10-16T11:49:11;96439.69;;;24.81
20867;BMP280;10593;48.398;10.698;2022-10-16T11:51:48;96442.91;;;24.84
20867;BMP280;10593;48.398;10.698;2022-10-16T11:54:33;96444.41;;;24.88
20867;BMP280;10593;48.398;10.698;2022-10-16T11:57:11;96444.19;;;24.91
20867;BMP280;10593;48.398;10.698;2022-10-16T12:02:31;96434.91;;;24.98
20867;BMP280;10593;48.398;10.698;2022-10-16T12:05:52;96426.81;;;25.01
20867;BMP280;10593;48.398;10.698;2022-10-16T12:08:21;96423.00;;;25.05
20867;BMP280;10593;48.398;10.698;2022-10-16T12:10:48;96422.69;;;25.10
20867;BMP280;10593;48.398;10.698;2022-10-16T12:13:41;96422.44;;;25.13
20867;BMP280;10593;48.398;10.698;2022-10-16T12:18:42;96428.03;;;25.21
20867;BMP280;10593;48.398;10.698;2022-10-16T12:21:09;96431.28;;;25.24
20867;BMP280;10593;48.398;10.698;2022-10-16T12:23:56;96437.06;;;25.29
20867;BMP280;10593;48.398;10.698;2022-10-16T12:26:37;96438.75;;;25.30
20867;BMP280;10593;48.398;10.698;2022-10-16T12:29:23;96435.88;;;25.33
20867;BMP280;10593;48.398;10.698;2022-10-16T12:31:50;96442.81;;;25.34
20867;BMP280;10593;48.398;10.698;2022-10-16T12:34:39;96433.97;;;25.35
20867;BMP280;10593;48.398;10.698;2022-10-16T12:37:21;96436.59;;;25.35
20867;BMP280;10593;48.398;10.698;2022-10-16T12:39:49;96440.09;;;25.36
20867;BMP280;10593;48.398;10.698;2022-10-16T12:44:54;96434.59;;;25.39
20867;BMP280;10593;48.398;10.698;2022-10-16T12:47:51;96437.09;;;25.40
20867;BMP280;10593;48.398;10.698;2022-10-16T12:50:33;96437.00;;;25.42
20867;BMP280;10593;48.398;10.698;2022-10-16T12:53:02;96434.25;;;25.43
20867;BMP280;10593;48.398;10.698;2022-10-16T12:55:43;96430.69;;;25.44
20867;BMP280;10593;48.398;10.698;2022-10-16T12:58:45;96435.81;;;25.46
20867;BMP280;10593;48.398;10.698;2022-10-16T13:01:49;96438.34;;;25.47
20867;BMP280;10593;48.398;10.698;2022-10-16T13:13:24;96444.09;;;25.52
20867;BMP280;10593;48.398;10.698;2022-10-16T13:16:57;96443.13;;;25.53
20867;BMP280;10593;48.398;10.698;2022-10-16T13:19:30;96443.03;;;25.55
20867;BMP280;10593;48.398;10.698;2022-10-16T13:25:32;96447.97;;;25.59
20867;BMP280;10593;48.398;10.698;2022-10-16T13:28:10;96437.22;;;25.62
20867;BMP280;10593;48.398;10.698;2022-10-16T13:30:41;96444.88;;;25.65
20867;BMP280;10593;48.398;10.698;2022-10-16T13:33:16;96448.22;;;25.67
20867;BMP280;10593;48.398;10.698;2022-10-16T13:35:51;96441.91;;;25.70
20867;BMP280;10593;48.398;10.698;2022-10-16T13:38:20;96446.00;;;25.74
20867;BMP280;10593;48.398;10.698;2022-10-16T13:43:43;96450.91;;;25.78
20867;BMP280;10593;48.398;10.698;2022-10-16T13:46:16;96455.97;;;25.81
20867;BMP280;10593;48.398;10.698;2022-10-16T13:48:42;96450.47;;;25.84
20867;BMP280;10593;48.398;10.698;2022-10-16T13:51:17;96452.91;;;25.87
20867;BMP280;10593;48.398;10.698;2022-10-16T13:53:45;96448.38;;;25.89
20867;BMP280;10593;48.398;10.698;2022-10-16T13:56:19;96455.22;;;25.92
20867;BMP280;10593;48.398;10.698;2022-10-16T13:58:45;96456.75;;;25.94
20867;BMP280;10593;48.398;10.698;2022-10-16T14:01:23;96450.41;;;25.96
20867;BMP280;10593;48.398;10.698;2022-10-16T14:03:51;96452.94;;;25.98
20867;BMP280;10593;48.398;10.698;2022-10-16T14:06:20;96455.44;;;25.99
20867;BMP280;10593;48.398;10.698;2022-10-16T14:09:00;96458.09;;;25.99
20867;BMP280;10593;48.398;10.698;2022-10-16T14:11:27;96454.41;;;26.02
20867;BMP280;10593;48.398;10.698;2022-10-16T14:13:53;96462.31;;;26.02
20867;BMP280;10593;48.398;10.698;2022-10-16T14:16:24;96477.03;;;26.04
20867;BMP280;10593;48.398;10.698;2022-10-16T14:19:25;96467.34;;;26.05
20867;BMP280;10593;48.398;10.698;2022-10-16T14:21:53;96466.38;;;26.06
20867;BMP280;10593;48.398;10.698;2022-10-16T14:24:48;96468.19;;;26.05
20867;BMP280;10593;48.398;10.698;2022-10-16T14:27:34;96465.41;;;26.07
20867;BMP280;10593;48.398;10.698;2022-10-16T14:30:19;96462.78;;;26.07
20867;BMP280;10593;48.398;10.698;2022-10-16T14:33:05;96467.22;;;26.06
20867;BMP280;10593;48.398;10.698;2022-10-16T14:35:37;96465.41;;;26.07
20867;BMP280;10593;48.398;10.698;2022-10-16T14:38:06;96472.41;;;26.08
20867;BMP280;10593;48.398;10.698;2022-10-16T14:40:48;96474.06;;;26.09
20867;BMP280;10593;48.398;10.698;2022-10-16T14:43:22;96468.81;;;26.09
20867;BMP280;10593;48.398;10.698;2022-10-16T14:45:56;96468.66;;;26.10
20867;BMP280;10593;48.398;10.698;2022-10-16T14:48:23;96468.56;;;26.12
20867;BMP280;10593;48.398;10.698;2022-10-16T14:50:49;96475.50;;;26.13
20867;BMP280;10593;48.398;10.698;2022-10-16T14:53:15;96466.66;;;26.14
20867;BMP280;10593;48.398;10.698;2022-10-16T14:55:42;96462.19;;;26.14
20867;BMP280;10593;48.398;10.698;2022-10-16T14:58:25;96464.72;;;26.16
20867;BMP280;10593;48.398;10.698;2022-10-16T15:00:51;96464.72;;;26.16
20867;BMP280;10593;48.398;10.698;2022-10-16T15:03:17;96467.38;;;26.16
20867;BMP280;10593;48.398;10.698;2022-10-16T15:05:43;96465.59;;;26.16
20867;BMP280;10593;48.398;10.698;2022-10-16T15:08:09;96460.19;;;26.18
20867;BMP280;10593;48.398;10.698;2022-10-16T15:10:41;96466.16;;;26.20
20867;BMP280;10593;48.398;10.698;2022-10-16T15:13:13;96476.72;;;26.20
20867;BMP280;10593;48.398;10.698;2022-10-16T15:15:46;96473.34;;;26.18
20867;BMP280;10593;48.398;10.698;2022-10-16T15:18:13;96466.66;;;26.14
20867;BMP280;10593;48.398;10.698;2022-10-16T15:20:40;96475.63;;;26.11
20867;BMP280;10593;48.398;10.698;2022-10-16T15:23:16;96469.53;;;26.11
20867;BMP280;10593;48.398;10.698;2022-10-16T15:25:52;96472.41;;;26.08
20867;BMP280;10593;48.398;10.698;2022-10-16T15:28:19;96475.94;;;26.07
20867;BMP280;10593;48.398;10.698;2022-10-16T15:30:48;96477.88;;;26.05
20867;BMP280;10593;48.398;10.698;2022-10-16T15:33:21;96475.22;;;26.05
20867;BMP280;10593;48.398;10.698;2022-10-16T15:35:50;96476.19;;;26.04
20867;BMP280;10593;48.398;10.698;2022-10-16T15:38:18;96476.19;;;26.04